Terminal Aerodrome Forecast
Issued by NWS Blacksburg, VA

Current Version | Previous Version | Graphics & Text | Print | Product List | Glossary On
Versions: 1 2 3 4 5 6 7 8 9 10 11 12 13 14 15 16 17 18 19 20 21
000
FTUS41 KRNK 240158 AAA
TAFBLF
TAF AMD
KBLF 240158Z 2402/2424 27004KT P6SM SCT015 SCT250
      TEMPO 2402/2404 BKN025
     FM241500 29008KT P6SM SCT250=

USA.gov is the U.S. government's official web portal to all federal, state and local government web resources and services.